createdAt,value
2022-12-03T00:01:23.199Z,-0.10
2022-12-03T00:03:51.045Z,0.00
2022-12-03T00:06:19.108Z,0.00
2022-12-03T00:08:46.964Z,0.06
2022-12-03T00:11:14.561Z,0.10
2022-12-03T00:13:42.282Z,0.10
2022-12-03T00:16:10.379Z,0.10
2022-12-03T00:18:38.168Z,0.14
2022-12-03T00:21:06.306Z,0.10
2022-12-03T00:23:40.161Z,0.10
2022-12-03T00:26:10.116Z,0.20
2022-12-03T00:28:38.072Z,0.20
2022-12-03T00:31:06.027Z,0.20
2022-12-03T00:33:33.818Z,0.20
2022-12-03T00:36:01.474Z,0.22
2022-12-03T00:38:29.222Z,0.30
2022-12-03T00:40:56.873Z,0.20
2022-12-03T00:43:24.634Z,0.20
2022-12-03T00:45:52.355Z,0.20
2022-12-03T00:48:20.084Z,0.20
2022-12-03T00:50:47.757Z,0.20
2022-12-03T00:53:15.362Z,0.20
2022-12-03T00:55:43.113Z,0.20
2022-12-03T00:58:10.923Z,0.20
2022-12-03T01:00:38.591Z,0.20
2022-12-03T01:03:06.329Z,0.18
2022-12-03T01:05:34.083Z,0.12
2022-12-03T01:08:01.835Z,0.10
2022-12-03T01:10:29.929Z,0.18
2022-12-03T01:12:57.587Z,0.20
2022-12-03T01:15:25.353Z,0.20
2022-12-03T01:17:54.279Z,0.20
2022-12-03T01:20:22.086Z,0.20
2022-12-03T01:22:49.807Z,0.20
2022-12-03T01:25:17.963Z,0.20
2022-12-03T01:27:45.676Z,0.20
2022-12-03T01:30:14.195Z,0.20
2022-12-03T01:32:41.946Z,0.20
2022-12-03T01:35:09.752Z,0.20
2022-12-03T01:37:37.456Z,0.20
2022-12-03T01:40:08.980Z,0.20
2022-12-03T01:42:41.170Z,0.20
2022-12-03T01:45:23.750Z,0.24
2022-12-03T01:47:51.623Z,0.20
2022-12-03T01:50:30.162Z,0.30
2022-12-03T01:53:01.734Z,0.30
2022-12-03T01:55:30.148Z,0.30
2022-12-03T01:58:01.925Z,0.26
2022-12-03T02:00:30.608Z,0.20
2022-12-03T02:03:08.406Z,0.20
2022-12-03T02:05:37.352Z,0.20
2022-12-03T02:08:34.969Z,0.22
2022-12-03T02:11:12.755Z,0.30
2022-12-03T02:13:40.637Z,0.30
2022-12-03T02:16:09.004Z,0.30
2022-12-03T02:18:36.743Z,0.40
2022-12-03T02:21:48.137Z,0.40
2022-12-03T02:24:31.586Z,0.50
2022-12-03T02:26:59.294Z,0.50
2022-12-03T02:29:27.249Z,0.44
2022-12-03T02:31:55.034Z,0.42
2022-12-03T02:34:50.540Z,0.50
2022-12-03T02:37:29.534Z,0.50
2022-12-03T02:40:04.334Z,0.50
2022-12-03T02:42:34.907Z,0.42
2022-12-03T02:45:16.902Z,0.46
2022-12-03T02:47:51.788Z,0.50
2022-12-03T02:50:28.450Z,0.52
2022-12-03T02:52:59.880Z,0.60
2022-12-03T02:55:35.057Z,0.60
2022-12-03T02:58:06.606Z,0.60
2022-12-03T03:00:36.038Z,0.60
2022-12-03T03:03:06.676Z,0.56
2022-12-03T03:05:39.123Z,0.50
2022-12-03T03:08:10.126Z,0.50
2022-12-03T03:10:40.432Z,0.50
2022-12-03T03:13:13.975Z,0.50
2022-12-03T03:15:42.501Z,0.50
2022-12-03T03:18:13.079Z,0.50
2022-12-03T03:20:41.577Z,0.50
2022-12-03T03:23:12.216Z,0.50
2022-12-03T03:26:03.737Z,0.50
2022-12-03T03:28:34.380Z,0.50
2022-12-03T03:31:04.595Z,0.50
2022-12-03T03:33:33.571Z,0.50
2022-12-03T03:36:02.112Z,0.50
2022-12-03T03:38:31.314Z,0.50
2022-12-03T03:41:03.438Z,0.50
2022-12-03T03:43:34.751Z,0.52
2022-12-03T03:46:06.551Z,0.60
2022-12-03T03:48:35.321Z,0.60
2022-12-03T03:51:08.991Z,0.60
2022-12-03T03:53:41.483Z,0.60
2022-12-03T03:56:10.629Z,0.58
2022-12-03T03:58:38.829Z,0.58
2022-12-03T04:01:08.461Z,0.58
2022-12-03T04:03:36.151Z,0.60
2022-12-03T04:06:04.071Z,0.60
2022-12-03T04:08:31.917Z,0.60
2022-12-03T04:11:18.220Z,0.64
2022-12-03T04:13:45.941Z,0.70
2022-12-03T04:16:13.713Z,0.70
2022-12-03T04:18:44.380Z,0.70
2022-12-03T04:21:38.325Z,0.70
2022-12-03T04:24:08.871Z,0.70
2022-12-03T04:26:56.743Z,0.68
2022-12-03T04:29:24.529Z,0.60
2022-12-03T04:32:10.844Z,0.62
2022-12-03T04:34:57.612Z,0.70
2022-12-03T04:37:25.430Z,0.70
2022-12-03T04:39:53.281Z,0.70
2022-12-03T04:42:21.097Z,0.70
2022-12-03T04:44:48.765Z,0.64
2022-12-03T04:47:19.555Z,0.62
2022-12-03T04:49:51.636Z,0.60
2022-12-03T04:52:21.121Z,0.60
2022-12-03T04:54:48.945Z,0.60
2022-12-03T04:57:16.874Z,0.60
2022-12-03T04:59:44.590Z,0.60
2022-12-03T05:02:12.332Z,0.60
2022-12-03T05:04:40.172Z,0.60
2022-12-03T05:07:07.898Z,0.70
2022-12-03T05:09:35.547Z,0.70
2022-12-03T05:12:04.022Z,0.70
2022-12-03T05:14:31.621Z,0.70
2022-12-03T05:16:59.380Z,0.60
2022-12-03T05:19:47.052Z,0.60
2022-12-03T05:22:14.783Z,0.60
2022-12-03T05:24:42.434Z,0.60
2022-12-03T05:27:10.356Z,0.66
2022-12-03T05:29:38.048Z,0.70
2022-12-03T05:32:05.913Z,0.70
2022-12-03T05:34:33.541Z,0.70
2022-12-03T05:37:01.236Z,0.70
2022-12-03T05:39:29.006Z,0.70
2022-12-03T05:42:16.125Z,0.66
2022-12-03T05:44:43.727Z,0.70
2022-12-03T05:47:11.520Z,0.70
2022-12-03T05:49:39.227Z,0.70
2022-12-03T05:52:07.026Z,0.70
2022-12-03T05:54:34.733Z,0.70
2022-12-03T05:57:02.395Z,0.70
2022-12-03T05:59:30.133Z,0.70
2022-12-03T06:01:58.330Z,0.70
2022-12-03T06:04:25.960Z,0.70
2022-12-03T06:06:53.581Z,0.70
2022-12-03T06:09:21.407Z,0.70
2022-12-03T06:11:53.489Z,0.70
2022-12-03T06:14:22.201Z,0.76
2022-12-03T06:16:49.871Z,0.80
2022-12-03T06:19:17.936Z,0.80
2022-12-03T06:21:45.811Z,0.80
2022-12-03T06:24:13.551Z,0.80
2022-12-03T06:26:41.191Z,0.80
2022-12-03T06:29:08.868Z,0.80
2022-12-03T06:31:36.751Z,0.80
2022-12-03T06:34:04.603Z,0.80
2022-12-03T06:36:32.394Z,0.80
2022-12-03T06:39:00.211Z,0.82
2022-12-03T06:41:27.906Z,0.90
2022-12-03T06:43:55.626Z,0.90
2022-12-03T06:46:23.392Z,0.90
2022-12-03T06:48:51.039Z,0.90
2022-12-03T06:51:18.751Z,0.90
2022-12-03T06:53:46.351Z,0.90
2022-12-03T06:56:14.212Z,0.90
2022-12-03T06:58:42.135Z,0.90
2022-12-03T07:01:09.944Z,0.98
2022-12-03T07:03:37.872Z,0.98
2022-12-03T07:06:05.858Z,1.00
2022-12-03T07:08:33.502Z,1.00
2022-12-03T07:11:01.120Z,1.00
2022-12-03T07:13:28.783Z,1.06
2022-12-03T07:15:56.501Z,1.04
2022-12-03T07:18:24.219Z,1.00
2022-12-03T07:20:51.858Z,0.92
2022-12-03T07:23:19.624Z,0.90
2022-12-03T07:25:47.331Z,0.90
2022-12-03T07:28:14.930Z,0.98
2022-12-03T07:30:42.702Z,1.00
2022-12-03T07:33:10.367Z,1.00
2022-12-03T07:35:38.091Z,1.00
2022-12-03T07:38:06.474Z,0.90
2022-12-03T07:40:34.164Z,0.90
2022-12-03T07:43:01.911Z,0.80
2022-12-03T07:45:29.725Z,0.80
2022-12-03T07:47:57.480Z,0.88
2022-12-03T07:50:28.357Z,0.90
2022-12-03T07:52:56.425Z,0.90
2022-12-03T07:55:25.248Z,0.92
2022-12-03T07:57:53.124Z,0.94
2022-12-03T08:00:21.728Z,1.00
2022-12-03T08:02:49.589Z,0.96
2022-12-03T08:05:17.477Z,0.90
2022-12-03T08:07:45.217Z,0.90
2022-12-03T08:10:13.084Z,1.00
2022-12-03T08:12:40.863Z,1.00
2022-12-03T08:15:17.529Z,1.10
2022-12-03T08:17:53.264Z,1.10
2022-12-03T08:20:24.700Z,1.10
2022-12-03T08:22:54.618Z,1.10
2022-12-03T08:25:33.599Z,1.10
2022-12-03T08:28:25.734Z,1.10
2022-12-03T08:31:05.750Z,1.10
2022-12-03T08:33:36.890Z,1.10
2022-12-03T08:36:22.882Z,1.20
2022-12-03T08:39:22.499Z,1.20
2022-12-03T08:42:17.113Z,1.20
2022-12-03T08:44:45.131Z,1.16
2022-12-03T08:47:20.423Z,1.10
2022-12-03T08:49:59.994Z,1.10
2022-12-03T08:52:33.776Z,1.10
2022-12-03T08:55:36.046Z,1.10
2022-12-03T08:58:23.510Z,1.20
2022-12-03T09:01:08.653Z,1.20
2022-12-03T09:04:06.684Z,1.20
2022-12-03T09:06:34.503Z,1.20
2022-12-03T09:09:06.533Z,1.20
2022-12-03T09:11:34.733Z,1.20
2022-12-03T09:14:02.480Z,1.20
2022-12-03T09:16:30.465Z,1.20
2022-12-03T09:18:58.313Z,1.20
2022-12-03T09:21:26.016Z,1.20
2022-12-03T09:23:53.655Z,1.20
2022-12-03T09:26:21.362Z,1.30
2022-12-03T09:28:49.037Z,1.30
2022-12-03T09:31:18.131Z,1.30
2022-12-03T09:33:45.871Z,1.36
2022-12-03T09:36:13.557Z,1.36
2022-12-03T09:38:46.117Z,1.40
2022-12-03T09:41:15.830Z,1.34
2022-12-03T09:44:03.476Z,1.38
2022-12-03T09:46:32.602Z,1.40
2022-12-03T09:49:02.485Z,1.40
2022-12-03T09:51:36.954Z,1.50
2022-12-03T09:54:07.577Z,1.50
2022-12-03T09:56:38.849Z,1.50
2022-12-03T09:59:14.519Z,1.54
2022-12-03T10:01:42.481Z,1.58
2022-12-03T10:04:11.056Z,1.60
2022-12-03T10:06:45.357Z,1.60
2022-12-03T10:09:22.232Z,1.70
2022-12-03T10:11:50.088Z,1.76
2022-12-03T10:14:20.265Z,1.80
2022-12-03T10:16:48.650Z,1.80
2022-12-03T10:19:23.850Z,1.80
2022-12-03T10:21:52.132Z,1.90
2022-12-03T10:24:30.559Z,1.90
2022-12-03T10:27:21.714Z,1.90
2022-12-03T10:30:01.639Z,1.90
2022-12-03T10:32:48.360Z,1.92
2022-12-03T10:35:26.889Z,2.00
2022-12-03T10:38:15.299Z,2.10
2022-12-03T10:40:43.042Z,2.10
2022-12-03T10:43:19.700Z,2.10
2022-12-03T10:46:13.222Z,2.10
2022-12-03T10:48:41.111Z,2.00
2022-12-03T10:51:22.306Z,2.00
2022-12-03T10:53:51.058Z,2.00
2022-12-03T10:56:26.725Z,2.10
2022-12-03T10:58:55.343Z,2.10
2022-12-03T11:01:26.350Z,2.20
2022-12-03T11:04:02.915Z,2.20
2022-12-03T11:06:34.864Z,2.22
2022-12-03T11:09:08.819Z,2.28
2022-12-03T11:11:37.127Z,2.26
2022-12-03T11:14:05.671Z,2.22
2022-12-03T11:16:39.337Z,2.20
2022-12-03T11:19:13.257Z,2.20
2022-12-03T11:22:06.189Z,2.20
2022-12-03T11:24:37.400Z,2.20
2022-12-03T11:27:06.977Z,2.20
2022-12-03T11:29:56.100Z,2.20
2022-12-03T11:32:39.709Z,2.20
2022-12-03T11:35:15.871Z,2.10
2022-12-03T11:37:43.613Z,2.10
2022-12-03T11:40:17.463Z,2.08
2022-12-03T11:42:48.353Z,2.10
2022-12-03T11:45:30.341Z,2.06
2022-12-03T11:47:58.056Z,2.00
2022-12-03T11:50:50.820Z,2.04
2022-12-03T11:53:28.860Z,2.10
2022-12-03T11:56:09.088Z,2.10
2022-12-03T11:58:42.466Z,2.00
2022-12-03T12:01:10.152Z,1.98
2022-12-03T12:03:50.085Z,1.90
2022-12-03T12:06:21.810Z,1.90
2022-12-03T12:08:52.409Z,2.00
2022-12-03T12:11:35.740Z,2.00
2022-12-03T12:14:12.136Z,2.00
2022-12-03T12:16:52.446Z,2.00
2022-12-03T12:19:52.664Z,1.90
2022-12-03T12:22:25.280Z,1.90
2022-12-03T12:25:00.946Z,1.90
2022-12-03T12:27:36.463Z,1.80
2022-12-03T12:30:19.724Z,1.84
2022-12-03T12:32:59.244Z,1.88
2022-12-03T12:35:32.924Z,1.82
2022-12-03T12:38:11.269Z,1.80
2022-12-03T12:40:44.961Z,1.80
2022-12-03T12:43:29.566Z,1.70
2022-12-03T12:46:38.578Z,1.70
2022-12-03T12:48:59.358Z,1.70
2022-12-03T12:51:27.522Z,1.70
2022-12-03T12:53:57.360Z,1.70
2022-12-03T12:56:27.413Z,1.62
2022-12-03T12:59:01.039Z,1.60
2022-12-03T13:01:32.129Z,1.60
2022-12-03T13:04:00.068Z,1.50
2022-12-03T13:06:31.901Z,1.50
2022-12-03T13:09:02.520Z,1.50
2022-12-03T13:11:35.121Z,1.50
2022-12-03T13:14:15.335Z,1.60
2022-12-03T13:16:44.411Z,1.60
2022-12-03T13:19:22.922Z,1.56
2022-12-03T13:21:54.322Z,1.50
2022-12-03T13:24:44.369Z,1.50
2022-12-03T13:27:18.145Z,1.50
2022-12-03T13:30:00.810Z,1.50
2022-12-03T13:32:33.947Z,1.50
2022-12-03T13:35:17.403Z,1.60
2022-12-03T13:37:45.179Z,1.60
2022-12-03T13:40:36.056Z,1.60
2022-12-03T13:43:21.811Z,1.70
2022-12-03T13:45:54.254Z,1.70
2022-12-03T13:48:27.597Z,1.70
2022-12-03T13:50:56.123Z,1.66
2022-12-03T13:53:38.527Z,1.60
2022-12-03T13:56:33.089Z,1.70
2022-12-03T13:59:01.602Z,1.70
2022-12-03T14:01:30.510Z,1.72
2022-12-03T14:03:58.293Z,1.76
2022-12-03T14:06:26.096Z,1.72
2022-12-03T14:08:54.509Z,1.78
2022-12-03T14:11:41.056Z,1.70
2022-12-03T14:14:09.188Z,1.70
2022-12-03T14:16:36.912Z,1.70
2022-12-03T14:19:04.969Z,1.70
2022-12-03T14:21:32.687Z,1.70
2022-12-03T14:24:00.398Z,1.70
2022-12-03T14:26:28.227Z,1.64
2022-12-03T14:28:55.928Z,1.60
2022-12-03T14:31:23.621Z,1.56
2022-12-03T14:33:51.336Z,1.50
2022-12-03T14:36:18.993Z,1.50
2022-12-03T14:38:46.693Z,1.50
2022-12-03T14:41:33.171Z,1.50
2022-12-03T14:44:00.870Z,1.50
2022-12-03T14:46:28.696Z,1.50
2022-12-03T14:48:56.485Z,1.58
2022-12-03T14:51:24.296Z,1.52
2022-12-03T14:53:51.953Z,1.54
2022-12-03T14:56:19.932Z,1.54
2022-12-03T14:58:47.580Z,1.50
2022-12-03T15:01:15.385Z,1.50
2022-12-03T15:03:43.176Z,1.50
2022-12-03T15:06:11.011Z,1.58
2022-12-03T15:08:38.682Z,1.60
2022-12-03T15:11:06.610Z,1.60
2022-12-03T15:13:34.396Z,1.60
2022-12-03T15:16:03.211Z,1.60
2022-12-03T15:18:31.184Z,1.60
2022-12-03T15:20:58.845Z,1.54
2022-12-03T15:23:26.544Z,1.50
2022-12-03T15:25:54.277Z,1.58
2022-12-03T15:28:23.224Z,1.58
2022-12-03T15:30:51.375Z,1.60
2022-12-03T15:33:19.657Z,1.50
2022-12-03T15:35:47.539Z,1.50
2022-12-03T15:38:15.569Z,1.54
2022-12-03T15:40:43.631Z,1.50
2022-12-03T15:43:11.533Z,1.50
2022-12-03T15:45:39.252Z,1.40
2022-12-03T15:48:06.948Z,1.44
2022-12-03T15:50:39.858Z,1.40
2022-12-03T15:53:07.889Z,1.42
2022-12-03T15:55:35.681Z,1.50
2022-12-03T15:58:03.414Z,1.50
2022-12-03T16:00:31.081Z,1.46
2022-12-03T16:02:58.819Z,1.40
2022-12-03T16:05:27.109Z,1.38
2022-12-03T16:07:54.914Z,1.40
2022-12-03T16:10:22.692Z,1.40
2022-12-03T16:12:50.565Z,1.40
2022-12-03T16:15:22.111Z,1.40
2022-12-03T16:17:52.961Z,1.40
2022-12-03T16:20:20.642Z,1.40
2022-12-03T16:22:48.387Z,1.40
2022-12-03T16:25:16.174Z,1.30
2022-12-03T16:27:43.926Z,1.30
2022-12-03T16:30:12.567Z,1.30
2022-12-03T16:32:40.201Z,1.30
2022-12-03T16:35:08.710Z,1.30
2022-12-03T16:37:36.366Z,1.34
2022-12-03T16:40:04.745Z,1.30
2022-12-03T16:42:32.407Z,1.30
2022-12-03T16:45:03.074Z,1.30
2022-12-03T16:47:34.280Z,1.30
2022-12-03T16:50:05.110Z,1.30
2022-12-03T16:52:32.743Z,1.30
2022-12-03T16:55:00.590Z,1.30
2022-12-03T16:57:33.389Z,1.22
2022-12-03T17:00:01.881Z,1.22
2022-12-03T17:02:29.707Z,1.20
2022-12-03T17:04:57.507Z,1.20
2022-12-03T17:07:25.250Z,1.20
2022-12-03T17:09:53.380Z,1.20
2022-12-03T17:12:21.242Z,1.28
2022-12-03T17:14:48.967Z,1.30
2022-12-03T17:17:16.717Z,1.30
2022-12-03T17:19:44.449Z,1.30
2022-12-03T17:22:12.170Z,1.30
2022-12-03T17:24:39.949Z,1.30
2022-12-03T17:27:08.115Z,1.30
2022-12-03T17:29:35.793Z,1.30
2022-12-03T17:32:03.666Z,1.30
2022-12-03T17:34:31.777Z,1.30
2022-12-03T17:36:59.497Z,1.28
2022-12-03T17:39:27.142Z,1.20
2022-12-03T17:41:54.814Z,1.22
2022-12-03T17:44:22.505Z,1.30
2022-12-03T17:46:50.898Z,1.30
2022-12-03T17:49:18.898Z,1.30
2022-12-03T17:51:46.591Z,1.32
2022-12-03T17:54:14.301Z,1.38
2022-12-03T17:56:43.649Z,1.36
2022-12-03T17:59:13.467Z,1.34
2022-12-03T18:01:41.714Z,1.40
2022-12-03T18:04:10.311Z,1.40
2022-12-03T18:06:38.264Z,1.40
2022-12-03T18:09:06.560Z,1.40
2022-12-03T18:11:34.295Z,1.42
2022-12-03T18:14:02.464Z,1.44
2022-12-03T18:16:30.304Z,1.50
2022-12-03T18:19:02.034Z,1.44
2022-12-03T18:21:35.013Z,1.48
2022-12-03T18:24:03.424Z,1.50
2022-12-03T18:26:31.188Z,1.50
2022-12-03T18:28:58.776Z,1.50
2022-12-03T18:31:26.694Z,1.50
2022-12-03T18:33:54.536Z,1.50
2022-12-03T18:36:29.904Z,1.60
2022-12-03T18:39:00.476Z,1.60
2022-12-03T18:41:28.973Z,1.60
2022-12-03T18:43:56.701Z,1.60
2022-12-03T18:46:51.954Z,1.60
2022-12-03T18:49:13.542Z,1.70
2022-12-03T18:51:41.151Z,1.70
2022-12-03T18:54:14.056Z,1.70
2022-12-03T18:56:41.691Z,1.70
2022-12-03T18:59:10.377Z,1.70
2022-12-03T19:01:38.189Z,1.70
2022-12-03T19:04:05.948Z,1.72
2022-12-03T19:06:33.648Z,1.74
2022-12-03T19:09:01.435Z,1.74
2022-12-03T19:11:29.221Z,1.72
2022-12-03T19:13:59.217Z,1.70
2022-12-03T19:16:27.046Z,1.70
2022-12-03T19:18:56.189Z,1.74
2022-12-03T19:21:23.983Z,1.74
2022-12-03T19:26:39.235Z,1.80
2022-12-03T19:29:07.031Z,1.80
2022-12-03T19:31:35.838Z,1.80
2022-12-03T19:34:04.195Z,1.80
2022-12-03T19:36:33.006Z,1.80
2022-12-03T19:39:01.569Z,1.80
2022-12-03T19:41:32.583Z,1.80
2022-12-03T19:44:00.656Z,1.86
2022-12-03T19:46:30.247Z,1.80
2022-12-03T19:48:58.924Z,1.80
2022-12-03T19:51:36.009Z,1.80
2022-12-03T19:54:06.573Z,1.80
2022-12-03T19:56:35.263Z,1.80
2022-12-03T19:59:05.052Z,1.80
2022-12-03T20:01:36.018Z,1.82
2022-12-03T20:04:04.201Z,1.90
2022-12-03T20:06:35.950Z,1.90
2022-12-03T20:09:12.036Z,1.90
2022-12-03T20:11:42.701Z,1.88
2022-12-03T20:14:15.245Z,1.82
2022-12-03T20:16:45.076Z,1.88
2022-12-03T20:19:17.280Z,1.90
2022-12-03T20:21:45.078Z,1.90
2022-12-03T20:24:16.580Z,1.90
2022-12-03T20:26:45.034Z,1.90
2022-12-03T20:29:13.051Z,1.90
2022-12-03T20:31:40.761Z,1.90
2022-12-03T20:34:10.564Z,1.90
2022-12-03T20:36:39.355Z,1.96
2022-12-03T20:39:08.344Z,2.00
2022-12-03T20:41:36.868Z,2.00
2022-12-03T20:44:07.383Z,2.00
2022-12-03T20:46:36.430Z,2.00
2022-12-03T20:49:04.810Z,2.00
2022-12-03T20:51:32.800Z,2.00
2022-12-03T20:54:01.998Z,2.00
2022-12-03T20:56:35.392Z,2.10
2022-12-03T20:59:13.389Z,2.10
2022-12-03T21:01:42.883Z,2.12
2022-12-03T21:04:18.022Z,2.16
2022-12-03T21:06:46.039Z,2.20
2022-12-03T21:09:14.368Z,2.20
2022-12-03T21:11:42.718Z,2.20
2022-12-03T21:14:11.324Z,2.20
2022-12-03T21:17:06.544Z,2.20
2022-12-03T21:19:28.055Z,2.20
2022-12-03T21:21:55.738Z,2.30
2022-12-03T21:24:23.404Z,2.30
2022-12-03T21:26:51.076Z,2.38
2022-12-03T21:29:18.744Z,2.34
2022-12-03T21:31:46.692Z,2.30
2022-12-03T21:34:14.451Z,2.32
2022-12-03T21:36:42.231Z,2.40
2022-12-03T21:39:09.896Z,2.40
2022-12-03T21:41:37.573Z,2.40
2022-12-03T21:44:05.476Z,2.40
2022-12-03T21:47:10.409Z,2.48
2022-12-03T21:49:22.684Z,2.50
2022-12-03T21:51:50.510Z,2.50
2022-12-03T21:54:18.508Z,2.50
2022-12-03T21:56:46.167Z,2.50
2022-12-03T21:59:14.714Z,2.50
2022-12-03T22:01:46.897Z,2.50
2022-12-03T22:04:15.056Z,2.58
2022-12-03T22:06:43.162Z,2.60
2022-12-03T22:09:10.776Z,2.60
2022-12-03T22:11:38.867Z,2.60
2022-12-03T22:14:08.184Z,2.60
2022-12-03T22:16:36.099Z,2.60
2022-12-03T22:19:04.347Z,2.62
2022-12-03T22:21:32.064Z,2.70
2022-12-03T22:23:59.794Z,2.70
2022-12-03T22:26:27.525Z,2.70
2022-12-03T22:28:55.262Z,2.70
2022-12-03T22:31:22.958Z,2.70
2022-12-03T22:33:50.761Z,2.70
2022-12-03T22:36:21.442Z,2.70
2022-12-03T22:38:51.058Z,2.80
2022-12-03T22:41:20.280Z,2.84
2022-12-03T22:43:48.701Z,2.90
2022-12-03T22:46:17.512Z,2.90
2022-12-03T22:48:47.047Z,2.90
2022-12-03T22:51:26.001Z,2.90
2022-12-03T22:54:00.070Z,2.90
2022-12-03T22:56:30.492Z,2.96
2022-12-03T22:58:58.346Z,3.00
2022-12-03T23:01:37.066Z,3.00
2022-12-03T23:04:06.523Z,3.00
2022-12-03T23:06:36.852Z,2.98
2022-12-03T23:09:06.949Z,2.92
2022-12-03T23:11:34.980Z,3.00
2022-12-03T23:14:03.699Z,3.00
2022-12-03T23:16:34.358Z,3.00
2022-12-03T23:19:03.507Z,3.10
2022-12-03T23:21:34.148Z,3.14
2022-12-03T23:24:05.354Z,3.20
2022-12-03T23:26:37.906Z,3.18
2022-12-03T23:29:08.518Z,3.10
2022-12-03T23:31:36.505Z,3.10
2022-12-03T23:34:04.938Z,3.10
2022-12-03T23:36:34.319Z,3.10
2022-12-03T23:39:02.097Z,3.10
2022-12-03T23:41:29.877Z,3.10
2022-12-03T23:43:57.815Z,3.10
2022-12-03T23:46:27.528Z,3.10
2022-12-03T23:48:55.637Z,3.10
2022-12-03T23:51:25.140Z,3.10
2022-12-03T23:53:55.428Z,3.10
2022-12-03T23:56:30.965Z,3.20
2022-12-03T23:58:59.010Z,3.20
